WetterOnline ( https://www.wetteronline.at )

Wetter aktuell Lüchow

Aktuelles Wetter: Lüchow (18m)

6-stündlich | Neueste Meldungen
Ortszeit Temperatur Wetter
Mo, 14.10. 2:00 20.2° C wolkig
So, 13.10. 20:00 20.3° C wolkig
So, 13.10. 14:00 20.0° C bewölkt
So, 13.10. 8:00 10.1° C wolkig
So, 13.10. 2:00 11.6° C bedeckt
Sa, 12.10. 20:00 12.8° C bewölkt
Sa, 12.10. 14:00 17.5° C bedeckt
Sa, 12.10. 8:00 15.4° C bedeckt
Ortszeit Temperatur Wetter
Mo, 14.10. 3:00 19.5° C bewölkt
Mo, 14.10. 2:50 19.5° C bewölkt
Mo, 14.10. 2:40 19.6° C bewölkt
Mo, 14.10. 2:30 19.9° C bedeckt
Mo, 14.10. 2:20 19.9° C bedeckt
Mo, 14.10. 2:10 20.0° C bewölkt
Mo, 14.10. 2:00 20.2° C wolkig
Mo, 14.10. 1:30 21.1° C wolkig
Mo, 14.10. 1:00 19.2° C bedeckt
Mo, 14.10. 0:30 20.2° C bedeckt
Mo, 14.10. 0:00 20.3° C bedeckt
Ortszeit Relative Feuchte Sichtweite
Mo, 14.10. 2:00 69% 50 km
So, 13.10. 20:00 70% 50 km
So, 13.10. 14:00 81% 40 km
So, 13.10. 8:00 97% 8 km
So, 13.10. 2:00 95% 29 km
Sa, 12.10. 20:00 96% 40 km
Sa, 12.10. 14:00 69% 55 km
Sa, 12.10. 8:00 77% 60 km
Ortszeit Relative Feuchte Sichtweite
Mo, 14.10. 3:00 73% 50 km
Mo, 14.10. 2:50 73% -
Mo, 14.10. 2:40 72% -
Mo, 14.10. 2:30 72% 60 km
Mo, 14.10. 2:20 72% -
Mo, 14.10. 2:10 71% -
Mo, 14.10. 2:00 69% 50 km
Mo, 14.10. 1:30 64% 50 km
Mo, 14.10. 1:00 73% 45 km
Mo, 14.10. 0:30 68% 45 km
Mo, 14.10. 0:00 67% 50 km
Ortszeit Niederschlagsmenge Niederschlagsart
Mo, 14.10. 2:00 0.0 l/m2 in 6 Std. -
So, 13.10. 20:00 0.6 l/m2 in 12 Std. Regen
So, 13.10. 14:00 0.1 l/m2 in 6 Std. Regen
So, 13.10. 8:00 0.1 l/m2 in 12 Std. Regen
So, 13.10. 2:00 0.1 l/m2 in 6 Std. Regen
Sa, 12.10. 20:00 0.3 l/m2 in 12 Std. Regen
Sa, 12.10. 14:00 0.0 l/m2 in 6 Std. -
Sa, 12.10. 8:00 0.1 l/m2 in 12 Std. -
Ortszeit Niederschlagsmenge Niederschlagsart
Mo, 14.10. 3:00 0.0 l/m2 in 1 Std. -
Mo, 14.10. 2:50 keine Meldung -
Mo, 14.10. 2:40 keine Meldung -
Mo, 14.10. 2:30 0.0 l/m2 in 1 Std. -
Mo, 14.10. 2:20 keine Meldung -
Mo, 14.10. 2:10 keine Meldung -
Mo, 14.10. 2:00 0.0 l/m2 in 1 Std. -
Mo, 14.10. 1:30 0.0 l/m2 in 1 Std. -
Mo, 14.10. 1:00 0.0 l/m2 in 1 Std. -
Mo, 14.10. 0:30 0.0 l/m2 in 1 Std. -
Mo, 14.10. 0:00 0.0 l/m2 in 1 Std. -
Ortszeit Stärke Spitze Richtung
km/h Bft. km/h Grad Sektor
Mo, 14.10. 2:00 15 3 37 240° SW
So, 13.10. 20:00 13 3 30 190° S
So, 13.10. 14:00 9 2 26 200° S
So, 13.10. 8:00 0 0 11 - -
So, 13.10. 2:00 4 1 11 60° NO
Sa, 12.10. 20:00 4 1 25 60° NO
Sa, 12.10. 14:00 14 3 36 250° W
Sa, 12.10. 8:00 17 3 33 210° SW
Ortszeit Stärke Spitze Richtung
km/h Bft. km/h Grad Sektor
Mo, 14.10. 3:00 15 3 28 250° W
Mo, 14.10. 2:50 15 3 - 250° W
Mo, 14.10. 2:40 14 3 - 240° SW
Mo, 14.10. 2:30 14 3 29 250° W
Mo, 14.10. 2:20 14 3 - 250° W
Mo, 14.10. 2:10 14 3 - 240° SW
Mo, 14.10. 2:00 15 3 37 240° SW
Mo, 14.10. 1:30 20 4 37 240° SW
Mo, 14.10. 1:00 14 3 25 210° SW
Mo, 14.10. 0:30 13 3 24 200° S
Mo, 14.10. 0:00 14 3 25 190° S
Ortszeit Untergrenze Bedeckung Gattung
total tief tief mittel hoch
Mo, 14.10. 2:00 1440 m 7/8 2/8 - - -
So, 13.10. 20:00 3300 m 7/8 1/8 - - -
So, 13.10. 14:00 780 m 8/8 7/8 - - -
So, 13.10. 8:00 1800 m 6/8 6/8 - - -
So, 13.10. 2:00 1110 m 8/8 8/8 - - -
Sa, 12.10. 20:00 300 m 8/8 7/8 - - -
Sa, 12.10. 14:00 930 m 8/8 8/8 - - -
Sa, 12.10. 8:00 1050 m 8/8 8/8 - - -
Ortszeit Bedeckungsgrad in Achtel und Wolkenuntergrenze
Mo, 14.10. 3:00 5(1500m) 8(4500m) 8(5100m)
Mo, 14.10. 2:50 5(1500m) 8(4500m) 8(5100m)
Mo, 14.10. 2:40 5(1500m) 8(4800m) 8(5400m)
Mo, 14.10. 2:30 6(1350m) 8(2100m) 8(4800m)
Mo, 14.10. 2:20 6(1350m) 8(2100m) 8(4800m)
Mo, 14.10. 2:10 5(1320m) 7(4500m) 8(5100m)
Mo, 14.10. 2:00 2(1440m) 6(4500m) 7(5100m)
Mo, 14.10. 1:30 3(1800m) 8(4200m) 8(4800m)
Mo, 14.10. 1:00 8(3900m) 2(2100m) 8(3900m)
Mo, 14.10. 0:30 8(3900m)
Mo, 14.10. 0:00 5(4200m) 7(5700m) 8(6300m)
Ortszeit Luftdruck NN (hPa) Tendenz (hPa in 3 Std.)
Mo, 14.10. 2:00 1010 + 1,2
So, 13.10. 20:00 1008 - 0,5
So, 13.10. 14:00 1011 - 0,5
So, 13.10. 8:00 1011 0,0
So, 13.10. 2:00 1012 + 0,1
Sa, 12.10. 20:00 1011 + 0,2
Sa, 12.10. 14:00 1009 + 1,3
Sa, 12.10. 8:00 1006 - 0,1
Ortszeit Luftdruck NN (hPa) Tendenz (hPa in 3 Std.)
Mo, 14.10. 3:00 1011 + 1,9
Mo, 14.10. 2:50 1011 keine Meldung
Mo, 14.10. 2:40 1011 keine Meldung
Mo, 14.10. 2:30 1011 + 1,7
Mo, 14.10. 2:20 1011 keine Meldung
Mo, 14.10. 2:10 1010 keine Meldung
Mo, 14.10. 2:00 1010 + 1,2
Mo, 14.10. 1:30 1010 + 1,1
Mo, 14.10. 1:00 1009 + 0,8
Mo, 14.10. 0:30 1009 + 0,6
Mo, 14.10. 0:00 1009 + 0,6
Ortszeit Schneehöhe (cm)
Mo, 14.10. 2:00 0
So, 13.10. 20:00 0
So, 13.10. 14:00 0
So, 13.10. 8:00 0
So, 13.10. 2:00 0
Sa, 12.10. 20:00 0
Sa, 12.10. 14:00 0
Sa, 12.10. 8:00 0
Ortszeit Schneehöhe (cm)
Mo, 14.10. 3:00 0
Mo, 14.10. 2:50 0
Mo, 14.10. 2:40 0
Mo, 14.10. 2:30 0
Mo, 14.10. 2:20 0
Mo, 14.10. 2:10 0
Mo, 14.10. 2:00 0
Mo, 14.10. 1:30 0
Mo, 14.10. 1:00 0
Mo, 14.10. 0:30 0
Mo, 14.10. 0:00 0
Link zu dieser Seite / Seite empfehlen

Das Wetter in ...